Time;durP1;ratioP1;P1;durP2;ratioP2;P2;SDS_P1;SDS_P2;PMS_P1;PMS_P2;Temp;Humidity;BMP_temperature;BMP_pressure;BME280_temperature;BME280_humidity;BME280_pressure;Samples;Min_cycle;Max_cycle;Signal;HPM_P1;HPM_P2
2021/05/25 00:00:15;;;;;;;1.67;0.65;;;10.50;99.90;;;;;;4974800;28;20093;-78
2021/05/25 00:02:43;;;;;;;1.88;0.50;;;10.40;99.90;;;;;;4975566;28;20054;-83
2021/05/25 00:05:13;;;;;;;2.50;0.82;;;10.40;1.00;;;;;;5001537;28;20021;-86
2021/05/25 00:07:39;;;;;;;1.10;0.50;;;10.30;99.90;;;;;;4989212;28;20026;-78
2021/05/25 00:10:06;;;;;;;1.58;0.90;;;10.30;1.00;;;;;;4991879;28;20449;-78
2021/05/25 00:12:31;;;;;;;2.35;0.55;;;10.30;1.00;;;;;;4988653;28;20026;-76
2021/05/25 00:14:57;;;;;;;3.75;2.30;;;10.20;1.00;;;;;;4990385;28;20025;-78
2021/05/25 00:17:23;;;;;;;1.00;0.60;;;10.20;99.90;;;;;;4993120;28;20030;-76
2021/05/25 00:19:48;;;;;;;1.13;0.60;;;10.20;99.90;;;;;;4993375;28;20496;-78
2021/05/25 00:22:14;;;;;;;0.98;0.47;;;10.10;1.00;;;;;;4992166;28;20034;-77
2021/05/25 00:24:40;;;;;;;3.92;0.70;;;10.10;1.00;;;;;;4992228;28;20041;-77
2021/05/25 00:27:06;;;;;;;1.15;0.50;;;10.10;99.90;;;;;;4992059;28;20403;-77
2021/05/25 00:29:32;;;;;;;0.57;0.47;;;10.10;99.90;;;;;;4998501;28;20041;-77
2021/05/25 00:31:58;;;;;;;1.65;0.50;;;10.00;1.00;;;;;;5012323;28;20030;-77
2021/05/25 00:34:23;;;;;;;1.95;0.65;;;10.00;1.00;;;;;;4994464;28;20018;-77
2021/05/25 00:36:49;;;;;;;2.58;1.83;;;9.90;1.00;;;;;;4993680;28;20026;-77
2021/05/25 00:39:15;;;;;;;2.72;0.90;;;9.90;1.00;;;;;;4992322;28;20026;-77
2021/05/25 00:41:40;;;;;;;2.30;0.55;;;9.80;1.00;;;;;;4990581;28;20018;-78
2021/05/25 00:44:10;;;;;;;1.98;0.60;;;9.70;1.00;;;;;;4992866;28;20346;-77
2021/05/25 00:46:37;;;;;;;1.20;0.60;;;9.70;1.00;;;;;;4993448;28;20022;-78
2021/05/25 00:49:03;;;;;;;1.45;0.60;;;9.70;1.00;;;;;;4992620;28;20043;-78
2021/05/25 00:51:29;;;;;;;2.03;0.70;;;9.70;1.00;;;;;;4983490;28;20121;-77
2021/05/25 00:53:55;;;;;;;1.55;0.60;;;9.70;1.00;;;;;;4992199;28;20503;-78
2021/05/25 00:56:21;;;;;;;6.43;1.45;;;9.70;1.00;;;;;;4992459;28;20030;-77
2021/05/25 00:58:48;;;;;;;1.27;0.35;;;9.70;1.00;;;;;;4991457;28;20034;-78
2021/05/25 01:01:13;;;;;;;1.40;0.57;;;9.80;1.00;;;;;;4992389;28;20026;-78
2021/05/25 01:03:39;;;;;;;1.10;0.52;;;9.70;1.00;;;;;;4987194;28;20403;-77
2021/05/25 01:06:04;;;;;;;1.35;0.63;;;9.80;1.00;;;;;;4983534;28;20105;-77
2021/05/25 01:08:30;;;;;;;5.45;0.75;;;9.80;1.00;;;;;;4992195;28;20031;-76
2021/05/25 01:11:07;;;;;;;2.30;0.57;;;9.80;1.00;;;;;;4989234;28;20042;-78
2021/05/25 01:13:45;;;;;;;2.08;0.70;;;9.80;1.00;;;;;;4989034;28;20478;-76
2021/05/25 01:16:11;;;;;;;1.52;0.52;;;9.80;1.00;;;;;;4989185;28;20041;-77
2021/05/25 01:18:37;;;;;;;3.85;0.82;;;9.70;1.00;;;;;;4991404;28;20031;-75
2021/05/25 01:21:05;;;;;;;1.95;0.60;;;9.70;1.00;;;;;;4992311;28;20069;-77
2021/05/25 01:23:31;;;;;;;1.20;0.55;;;9.60;1.00;;;;;;4991863;28;20060;-76
2021/05/25 01:25:57;;;;;;;0.88;0.80;;;9.70;1.00;;;;;;5007397;28;20054;-79
2021/05/25 01:28:24;;;;;;;1.88;0.90;;;9.60;1.00;;;;;;4987003;28;20065;-77
2021/05/25 01:30:53;;;;;;;1.15;0.63;;;9.60;1.00;;;;;;4989399;28;20023;-76
2021/05/25 01:33:19;;;;;;;4.00;0.80;;;9.50;1.00;;;;;;4995488;28;20660;-77
2021/05/25 01:35:46;;;;;;;3.97;0.88;;;9.40;1.00;;;;;;4996570;28;20105;-78
2021/05/25 01:38:14;;;;;;;1.35;0.70;;;9.40;1.00;;;;;;4996471;28;20030;-77
2021/05/25 01:40:41;;;;;;;1.13;0.70;;;9.40;1.00;;;;;;4994876;28;20085;-77
2021/05/25 01:43:07;;;;;;;2.03;1.00;;;9.30;1.00;;;;;;4994664;28;20040;-77
2021/05/25 01:45:34;;;;;;;1.17;0.73;;;9.40;1.00;;;;;;4996119;28;20033;-78
2021/05/25 01:48:02;;;;;;;1.65;0.77;;;9.30;1.00;;;;;;4995525;28;20472;-77
2021/05/25 01:50:29;;;;;;;5.53;0.85;;;9.40;1.00;;;;;;4987669;28;20049;-77
2021/05/25 01:53:01;;;;;;;1.15;0.52;;;9.40;1.00;;;;;;4988042;28;20027;-77
2021/05/25 01:55:42;;;;;;;2.95;2.63;;;9.40;1.00;;;;;;4987657;28;20037;-77
2021/05/25 01:58:10;;;;;;;1.83;0.70;;;9.40;1.00;;;;;;4995176;28;20034;-77
2021/05/25 02:00:38;;;;;;;2.78;1.25;;;9.30;1.00;;;;;;4994632;28;20125;-77
2021/05/25 02:03:04;;;;;;;2.45;0.60;;;9.30;1.00;;;;;;4994970;28;20099;-77
2021/05/25 02:05:31;;;;;;;2.70;0.63;;;9.40;1.00;;;;;;4995695;28;20038;-77
2021/05/25 02:07:56;;;;;;;1.35;0.65;;;9.40;1.00;;;;;;4995631;28;20368;-79
2021/05/25 02:10:26;;;;;;;1.38;0.60;;;9.50;1.00;;;;;;4994779;28;20076;-77
2021/05/25 02:12:55;;;;;;;2.72;1.10;;;9.60;99.90;;;;;;4995623;28;20022;-77
2021/05/25 02:15:20;;;;;;;1.80;0.60;;;9.70;99.90;;;;;;4995675;28;20038;-77
2021/05/25 02:17:46;;;;;;;1.35;0.55;;;9.70;99.90;;;;;;5011017;28;20011;-77
2021/05/25 02:20:12;;;;;;;3.72;0.60;;;9.70;99.90;;;;;;5009684;28;20085;-76
2021/05/25 02:22:38;;;;;;;3.75;0.75;;;9.80;99.90;;;;;;4994656;28;20026;-77
2021/05/25 02:25:05;;;;;;;3.05;0.70;;;9.70;99.90;;;;;;4995394;28;20030;-77
2021/05/25 02:27:31;;;;;;;1.15;0.60;;;9.80;99.90;;;;;;4991326;28;20440;-78
2021/05/25 02:29:57;;;;;;;1.08;0.60;;;9.80;99.90;;;;;;4994153;28;20026;-77
2021/05/25 02:32:23;;;;;;;1.15;1.05;;;9.80;99.90;;;;;;4993492;28;20505;-78
2021/05/25 02:34:48;;;;;;;3.22;0.82;;;9.70;99.90;;;;;;4995249;28;20084;-77
2021/05/25 02:37:14;;;;;;;2.40;0.60;;;9.60;99.90;;;;;;4995196;28;20035;-76
2021/05/25 02:39:39;;;;;;;1.35;0.50;;;9.50;99.90;;;;;;5009693;28;20438;-77
2021/05/25 02:42:05;;;;;;;2.30;0.60;;;9.50;99.90;;;;;;4994198;28;20113;-76
2021/05/25 02:44:30;;;;;;;2.88;0.60;;;9.40;99.90;;;;;;4992867;28;20019;-77
2021/05/25 02:46:56;;;;;;;2.08;0.75;;;9.40;99.90;;;;;;4994646;28;20161;-76
2021/05/25 02:49:21;;;;;;;2.00;0.57;;;9.50;99.90;;;;;;4993512;28;20065;-77
2021/05/25 02:51:47;;;;;;;1.90;0.80;;;9.50;99.90;;;;;;4993090;28;20029;-76
2021/05/25 02:54:13;;;;;;;2.42;0.63;;;9.40;99.90;;;;;;4986753;28;20463;-77
2021/05/25 02:56:38;;;;;;;3.78;0.55;;;9.40;99.90;;;;;;4990148;28;20435;-77
2021/05/25 02:59:04;;;;;;;2.40;0.88;;;9.40;99.90;;;;;;4993389;28;20058;-77
2021/05/25 03:01:29;;;;;;;2.13;0.70;;;9.30;99.90;;;;;;4986730;28;20034;-78
2021/05/25 03:03:55;;;;;;;1.67;0.65;;;9.40;99.90;;;;;;4994994;28;20101;-78
2021/05/25 03:06:20;;;;;;;2.13;0.50;;;9.40;99.90;;;;;;4994449;28;20118;-78
2021/05/25 03:08:46;;;;;;;3.58;0.60;;;9.40;99.90;;;;;;4994694;28;20447;-77
2021/05/25 03:11:12;;;;;;;2.90;0.70;;;9.40;99.90;;;;;;4993964;28;20030;-78
2021/05/25 03:13:37;;;;;;;4.45;1.98;;;9.40;99.90;;;;;;4994518;28;20029;-77
2021/05/25 03:16:03;;;;;;;2.65;0.65;;;9.40;99.90;;;;;;4993514;28;20026;-77
2021/05/25 03:18:29;;;;;;;2.25;0.60;;;9.30;99.90;;;;;;4994127;28;20030;-77
2021/05/25 03:20:54;;;;;;;1.83;0.85;;;9.30;99.90;;;;;;4993808;28;20076;-77
2021/05/25 03:23:20;;;;;;;2.60;0.77;;;9.30;99.90;;;;;;4993229;28;20390;-78
2021/05/25 03:25:47;;;;;;;3.47;1.13;;;9.30;99.90;;;;;;4993898;28;20117;-78
2021/05/25 03:28:13;;;;;;;2.78;1.23;;;9.20;99.90;;;;;;5004819;28;20034;-77
2021/05/25 03:30:39;;;;;;;2.47;0.80;;;9.10;99.90;;;;;;4994148;28;20023;-79
2021/05/25 03:33:06;;;;;;;7.25;1.33;;;9.10;99.90;;;;;;4994053;28;20125;-77
2021/05/25 03:35:31;;;;;;;3.33;0.60;;;9.00;99.90;;;;;;4993837;28;20022;-78
2021/05/25 03:37:57;;;;;;;1.83;0.95;;;9.00;99.90;;;;;;4993932;28;20034;-77
2021/05/25 03:40:23;;;;;;;2.08;0.82;;;9.00;99.90;;;;;;4991193;28;20080;-77
2021/05/25 03:42:51;;;;;;;1.45;0.70;;;9.00;99.90;;;;;;4993969;28;20030;-78
2021/05/25 03:45:19;;;;;;;5.80;0.85;;;9.00;99.90;;;;;;4993698;28;20031;-78
2021/05/25 03:47:45;;;;;;;2.60;0.60;;;9.10;99.90;;;;;;4993805;28;20037;-77
2021/05/25 03:50:11;;;;;;;4.45;0.75;;;9.10;99.90;;;;;;4992818;28;20383;-77
2021/05/25 03:52:46;;;;;;;0.73;0.55;;;9.20;99.90;;;;;;4988407;28;20023;-77
2021/05/25 04:00:41;;;;;;;2.92;0.60;;;9.80;99.90;;;;;;4986100;28;20118;-77
2021/05/25 04:03:06;;;;;;;3.20;0.70;;;10.00;99.90;;;;;;5001064;28;20026;-78
2021/05/25 04:05:32;;;;;;;2.08;0.68;;;10.20;99.90;;;;;;5007389;28;20096;-76
2021/05/25 04:07:58;;;;;;;0.77;0.40;;;10.30;99.90;;;;;;4994746;28;20031;-77
2021/05/25 04:10:24;;;;;;;1.08;0.68;;;10.50;99.90;;;;;;4993483;28;20037;-76
2021/05/25 04:12:50;;;;;;;1.25;0.60;;;10.60;99.90;;;;;;4985058;28;20022;-77
2021/05/25 04:15:16;;;;;;;2.42;0.60;;;10.60;99.90;;;;;;4992908;28;20022;-78
2021/05/25 04:17:42;;;;;;;3.08;0.50;;;10.40;99.90;;;;;;4993200;28;20471;-77
2021/05/25 04:20:10;;;;;;;1.85;0.68;;;10.50;99.90;;;;;;4993464;28;20109;-77
2021/05/25 04:22:36;;;;;;;2.25;0.40;;;10.60;99.90;;;;;;4989153;28;20031;-77
2021/05/25 04:25:02;;;;;;;3.40;0.93;;;10.60;99.90;;;;;;4990120;28;20068;-78
2021/05/25 04:27:28;;;;;;;0.70;0.57;;;10.80;99.90;;;;;;4989380;28;20397;-77
2021/05/25 04:29:53;;;;;;;4.25;0.60;;;10.90;99.90;;;;;;4988771;28;20023;-78
2021/05/25 04:32:19;;;;;;;0.70;0.47;;;10.80;99.90;;;;;;4985428;28;20511;-77
2021/05/25 04:34:44;;;;;;;1.85;0.50;;;10.80;99.90;;;;;;4992997;28;20030;-77
2021/05/25 04:37:10;;;;;;;1.75;0.55;;;10.90;99.90;;;;;;4992831;28;20398;-76
2021/05/25 04:39:36;;;;;;;1.40;0.40;;;11.00;99.90;;;;;;4992685;28;20054;-79
2021/05/25 04:42:01;;;;;;;1.88;0.60;;;10.80;99.90;;;;;;4988362;28;20058;-78
2021/05/25 04:44:27;;;;;;;2.03;1.00;;;10.70;99.90;;;;;;4991644;28;20023;-76
2021/05/25 04:46:53;;;;;;;1.63;0.73;;;10.40;99.90;;;;;;4993133;28;20022;-78
2021/05/25 04:49:18;;;;;;;0.85;0.32;;;10.20;99.90;;;;;;4993685;28;20117;-77
2021/05/25 04:51:44;;;;;;;2.58;0.50;;;10.10;99.90;;;;;;4992288;28;20418;-77
2021/05/25 04:54:09;;;;;;;1.23;0.70;;;10.00;99.90;;;;;;4990517;28;20057;-76
2021/05/25 04:56:35;;;;;;;1.05;0.40;;;10.10;99.90;;;;;;4986487;28;20050;-77
2021/05/25 04:59:01;;;;;;;2.47;0.70;;;10.20;99.90;;;;;;4992952;28;20034;-77
2021/05/25 05:01:28;;;;;;;2.88;0.70;;;10.30;99.90;;;;;;4985615;28;20102;-76
2021/05/25 05:03:54;;;;;;;1.88;0.70;;;10.30;99.90;;;;;;4995324;28;20027;-81
2021/05/25 05:06:20;;;;;;;4.07;0.70;;;10.30;99.90;;;;;;4984003;28;20026;-77
2021/05/25 05:08:45;;;;;;;3.35;0.70;;;10.20;99.90;;;;;;5004774;28;20033;-77
2021/05/25 05:11:11;;;;;;;0.45;0.30;;;10.30;99.90;;;;;;4987649;28;20026;-77
2021/05/25 05:13:37;;;;;;;1.33;0.40;;;10.30;99.90;;;;;;4992895;28;20037;-78
2021/05/25 05:16:03;;;;;;;2.53;0.50;;;10.30;99.90;;;;;;4993070;28;20030;-77
2021/05/25 05:18:29;;;;;;;1.27;0.60;;;10.50;99.90;;;;;;4991066;28;20074;-76
2021/05/25 05:20:54;;;;;;;2.90;1.00;;;10.60;99.90;;;;;;4992520;28;20026;-79
2021/05/25 05:23:20;;;;;;;3.00;1.15;;;10.90;99.90;;;;;;4992068;28;20046;-77
2021/05/25 05:25:45;;;;;;;0.50;0.30;;;10.90;99.90;;;;;;4992519;28;20030;-77
2021/05/25 05:28:11;;;;;;;1.58;0.30;;;10.90;99.90;;;;;;4992757;28;20053;-75
2021/05/25 05:30:37;;;;;;;0.63;0.38;;;11.60;50.20;;;;;;4992402;28;20031;-77
2021/05/25 05:33:05;;;;;;;1.88;0.40;;;12.40;99.90;;;;;;4993560;28;20023;-75
2021/05/25 05:35:31;;;;;;;0.60;0.40;;;12.60;99.90;;;;;;4992100;28;20026;-76
2021/05/25 05:37:57;;;;;;;1.45;0.30;;;12.40;99.90;;;;;;4996855;28;20025;-75
2021/05/25 05:40:22;;;;;;;1.75;0.40;;;12.10;99.90;;;;;;5007734;28;20026;-77
2021/05/25 05:42:48;;;;;;;1.77;0.50;;;12.40;58.00;;;;;;5005294;28;20030;-76
2021/05/25 05:45:14;;;;;;;0.70;0.35;;;12.70;99.90;;;;;;5003940;28;20038;-76
2021/05/25 05:47:40;;;;;;;1.40;0.45;;;12.80;1.00;;;;;;5002804;28;20038;-76
2021/05/25 05:50:10;;;;;;;1.23;0.52;;;12.60;17.60;;;;;;5006352;28;20046;-74
2021/05/25 05:52:38;;;;;;;1.98;0.30;;;12.30;99.90;;;;;;5006509;28;20023;-76
2021/05/25 05:55:05;;;;;;;2.53;0.50;;;12.00;1.00;;;;;;5006291;28;20041;-75
2021/05/25 05:57:31;;;;;;;1.20;0.40;;;11.80;99.90;;;;;;4999702;28;20022;-78
2021/05/25 05:59:57;;;;;;;1.60;0.43;;;11.90;99.90;;;;;;4992115;28;20026;-76
2021/05/25 06:02:23;;;;;;;2.75;0.73;;;11.90;99.90;;;;;;4992990;28;20491;-76
2021/05/25 06:04:48;;;;;;;2.03;0.57;;;11.80;99.90;;;;;;4991586;28;20030;-76
2021/05/25 06:07:14;;;;;;;2.45;0.52;;;11.80;1.00;;;;;;4989041;28;20031;-77
2021/05/25 06:09:39;;;;;;;1.27;0.60;;;11.60;1.00;;;;;;4992611;28;20085;-76
2021/05/25 06:12:05;;;;;;;1.60;0.95;;;11.70;99.90;;;;;;4982584;28;20522;-77
2021/05/25 06:14:31;;;;;;;2.28;0.40;;;11.50;99.90;;;;;;4994280;28;20026;-75
2021/05/25 06:16:59;;;;;;;1.05;0.40;;;11.50;1.00;;;;;;4995685;28;20125;-76
2021/05/25 06:19:24;;;;;;;1.83;0.60;;;11.80;1.00;;;;;;4994192;28;20022;-76
2021/05/25 06:21:50;;;;;;;1.02;0.63;;;11.80;99.90;;;;;;4996329;28;20134;-77
2021/05/25 06:24:16;;;;;;;3.97;0.60;;;12.00;1.00;;;;;;4995257;28;20026;-76
2021/05/25 06:26:42;;;;;;;0.90;0.40;;;11.80;99.90;;;;;;4995853;28;20380;-76
2021/05/25 06:29:08;;;;;;;1.58;0.60;;;11.70;99.90;;;;;;4995792;28;20074;-76
2021/05/25 06:31:36;;;;;;;2.03;0.50;;;11.80;99.90;;;;;;4996396;28;20057;-78
2021/05/25 06:34:02;;;;;;;0.73;0.60;;;11.80;99.90;;;;;;4996075;28;20545;-75
2021/05/25 06:36:28;;;;;;;2.30;0.50;;;11.70;46.00;;;;;;4994775;28;20026;-76
2021/05/25 06:38:54;;;;;;;0.95;0.60;;;11.80;1.00;;;;;;4994810;28;20031;-77
2021/05/25 06:41:19;;;;;;;1.60;0.40;;;11.90;99.90;;;;;;4993524;28;20037;-76
2021/05/25 06:43:45;;;;;;;2.20;0.50;;;12.00;1.00;;;;;;4995828;28;20030;-76
2021/05/25 06:46:10;;;;;;;0.65;0.30;;;11.90;99.90;;;;;;4994749;28;20029;-75
2021/05/25 06:48:36;;;;;;;1.48;0.50;;;11.80;1.00;;;;;;4995135;28;20510;-77
2021/05/25 06:51:06;;;;;;;1.73;0.57;;;12.00;99.90;;;;;;4995301;28;20077;-76
2021/05/25 06:53:32;;;;;;;0.67;0.30;;;12.30;99.90;;;;;;4991727;28;20142;-76
2021/05/25 06:55:58;;;;;;;4.10;0.63;;;12.60;97.50;;;;;;4994388;28;20046;-78
2021/05/25 06:58:23;;;;;;;1.48;0.52;;;12.90;99.90;;;;;;4993915;28;20034;-78
2021/05/25 07:00:49;;;;;;;1.15;0.47;;;12.90;1.00;;;;;;4994215;28;20015;-77
2021/05/25 07:03:14;;;;;;;2.60;0.70;;;13.10;1.00;;;;;;4995116;28;20032;-76
2021/05/25 07:05:40;;;;;;;2.10;0.47;;;12.80;99.90;;;;;;4994493;28;20030;-77
2021/05/25 07:08:06;;;;;;;1.27;0.40;;;12.70;1.00;;;;;;4988252;28;20022;-77
2021/05/25 07:10:31;;;;;;;2.17;0.73;;;12.50;43.20;;;;;;4995025;28;20029;-76
2021/05/25 07:12:57;;;;;;;0.73;0.28;;;12.30;99.90;;;;;;4993728;28;20026;-75
2021/05/25 07:15:23;;;;;;;1.90;0.40;;;12.30;99.90;;;;;;5012548;28;20038;-76
2021/05/25 07:17:58;;;;;;;2.10;0.40;;;12.40;99.90;;;;;;5018269;28;20022;-74
2021/05/25 07:20:25;;;;;;;0.75;0.50;;;12.50;63.90;;;;;;5017480;28;20014;-75
2021/05/25 07:22:53;;;;;;;2.30;0.50;;;12.30;99.90;;;;;;5017642;28;20022;-74
2021/05/25 07:25:21;;;;;;;2.03;0.90;;;12.50;99.90;;;;;;5013987;28;20110;-74
2021/05/25 07:27:50;;;;;;;2.33;0.50;;;12.50;1.00;;;;;;5016761;28;20041;-75
2021/05/25 07:30:20;;;;;;;1.73;0.50;;;12.60;1.00;;;;;;5016999;28;20030;-75
2021/05/25 07:32:46;;;;;;;1.15;0.90;;;12.90;99.90;;;;;;5014086;28;20027;-75
2021/05/25 07:35:12;;;;;;;2.25;1.10;;;13.00;59.70;;;;;;5004584;28;20086;-75
2021/05/25 07:37:39;;;;;;;1.65;0.50;;;12.90;1.00;;;;;;5001384;28;20054;-76
2021/05/25 07:40:06;;;;;;;1.58;0.40;;;13.00;1.00;;;;;;5001757;28;20022;-77
2021/05/25 07:42:31;;;;;;;1.58;0.60;;;13.10;99.90;;;;;;4999192;28;20027;-76
2021/05/25 07:44:57;;;;;;;1.00;0.50;;;13.10;99.90;;;;;;4997681;28;20053;-77
2021/05/25 07:47:23;;;;;;;1.27;0.50;;;13.20;99.90;;;;;;4995233;28;20049;-76
2021/05/25 07:49:48;;;;;;;1.23;0.40;;;13.30;99.90;;;;;;4999204;28;20029;-76
2021/05/25 07:52:15;;;;;;;0.50;0.30;;;13.50;99.90;;;;;;4995413;28;20038;-80
2021/05/25 07:58:24;;;;;;;0.88;0.63;;;13.50;1.00;;;;;;5161974;23;20105;-78
2021/05/25 08:00:53;;;;;;;1.83;0.57;;;13.30;1.00;;;;;;5043059;28;20030;-76
2021/05/25 08:03:25;;;;;;;7.38;0.80;;;13.00;1.00;;;;;;5031525;28;20034;-77
2021/05/25 08:05:50;;;;;;;1.80;0.52;;;13.00;1.00;;;;;;5012203;28;20045;-78
2021/05/25 08:09:08;;;;;;;2.30;0.50;;;12.90;1.00;;;;;;5011887;28;20129;-78
2021/05/25 08:11:34;;;;;;;1.38;0.50;;;13.00;1.00;;;;;;4979119;28;20039;-77
2021/05/25 08:13:59;;;;;;;3.08;0.40;;;12.90;1.00;;;;;;4981837;28;20046;-78
2021/05/25 08:16:29;;;;;;;1.10;0.52;;;12.80;1.00;;;;;;4979558;28;20387;-78
2021/05/25 08:21:23;;;;;;;1.38;0.40;;;12.70;1.00;;;;;;4988654;28;20106;-76
2021/05/25 08:23:52;;;;;;;1.27;0.50;;;13.20;1.00;;;;;;4978019;28;20051;-76
2021/05/25 08:26:32;;;;;;;1.58;0.50;;;13.40;99.90;;;;;;4977130;28;20027;-78
2021/05/25 08:32:33;;;;;;;0.70;0.55;;;13.60;99.90;;;;;;4984536;28;20513;-77
2021/05/25 08:34:59;;;;;;;1.50;0.40;;;13.60;99.90;;;;;;5021573;23;20191;-76
2021/05/25 08:37:25;;;;;;;2.53;0.50;;;13.60;99.90;;;;;;5011166;28;20026;-77
2021/05/25 08:40:31;;;;;;;1.00;0.40;;;13.60;99.90;;;;;;5015003;28;20033;-79
2021/05/25 08:42:57;;;;;;;0.85;0.38;;;13.80;99.90;;;;;;5015965;28;20022;-76
2021/05/25 08:45:23;;;;;;;1.95;0.50;;;14.10;99.90;;;;;;4998930;28;20070;-77
2021/05/25 08:48:41;;;;;;;2.15;0.50;;;14.20;99.90;;;;;;4994821;28;20030;-77
2021/05/25 08:51:07;;;;;;;0.63;0.52;;;14.20;99.90;;;;;;4966014;28;20087;-77
2021/05/25 08:56:29;;;;;;;1.58;0.50;;;13.80;99.90;;;;;;5250937;23;20261;-81
2021/05/25 08:59:21;;;;;;;0.50;0.30;;;13.90;99.90;;;;;;5000181;28;20026;-79
2021/05/25 09:01:49;;;;;;;1.23;0.52;;;13.80;99.90;;;;;;4972584;28;20137;-76
2021/05/25 09:07:36;;;;;;;1.30;0.50;;;13.90;99.90;;;;;;4915287;29;20118;-78
2021/05/25 09:10:34;;;;;;;2.50;0.57;;;14.10;99.90;;;;;;4918211;29;20107;-76
2021/05/25 09:13:01;;;;;;;1.30;0.40;;;14.10;99.90;;;;;;4994857;28;20086;-76
2021/05/25 09:15:35;;;;;;;2.47;0.73;;;14.20;99.90;;;;;;5009968;28;20028;-76
2021/05/25 09:18:34;;;;;;;0.98;0.40;;;14.30;99.90;;;;;;4993822;28;20054;-80
2021/05/25 09:21:31;;;;;;;1.60;0.43;;;14.20;99.90;;;;;;4995644;28;20502;-81
2021/05/25 09:23:56;;;;;;;1.45;0.52;;;14.10;99.90;;;;;;4990025;28;20026;-80
2021/05/25 09:26:44;;;;;;;2.47;0.73;;;14.00;99.90;;;;;;5001550;28;20023;-79
2021/05/25 09:29:13;;;;;;;1.38;0.65;;;13.90;99.90;;;;;;5013687;28;20093;-80
2021/05/25 09:31:51;;;;;;;3.75;0.60;;;14.30;99.90;;;;;;5000296;28;20026;-80
2021/05/25 09:34:17;;;;;;;2.38;0.35;;;14.60;99.90;;;;;;5000892;28;20061;-81
2021/05/25 09:37:05;;;;;;;1.05;0.47;;;14.20;99.90;;;;;;5003233;28;20048;-81
2021/05/25 09:39:33;;;;;;;1.52;0.70;;;14.30;99.90;;;;;;5016427;28;20018;-79
2021/05/25 09:42:04;;;;;;;1.70;0.93;;;14.50;99.90;;;;;;5008183;28;20022;-80
2021/05/25 09:44:30;;;;;;;1.38;0.38;;;14.40;99.90;;;;;;5005261;28;20102;-84
2021/05/25 09:47:01;;;;;;;1.80;0.40;;;14.40;99.90;;;;;;5006602;28;20094;-85
2021/05/25 09:49:28;;;;;;;4.00;1.02;;;14.30;99.90;;;;;;5005015;28;20053;-82
2021/05/25 09:52:06;;;;;;;1.65;0.50;;;14.30;99.90;;;;;;5002407;28;20383;-81
2021/05/25 09:54:32;;;;;;;4.95;1.45;;;14.10;99.90;;;;;;5013969;28;20021;-81
2021/05/25 09:57:00;;;;;;;3.35;0.82;;;14.20;99.90;;;;;;5002184;28;20030;-82
2021/05/25 09:59:38;;;;;;;8.38;3.50;;;14.50;99.90;;;;;;5003254;28;20495;-82
2021/05/25 10:02:17;;;;;;;2.50;1.05;;;14.90;99.90;;;;;;5001845;28;20038;-83
2021/05/25 10:05:04;;;;;;;6.88;2.40;;;14.80;99.90;;;;;;5019034;28;20045;-81
2021/05/25 10:07:30;;;;;;;1.33;0.50;;;15.00;99.90;;;;;;5000049;28;20042;-82
2021/05/25 10:09:57;;;;;;;2.22;0.40;;;15.00;93.80;;;;;;5000992;28;20026;-83
2021/05/25 10:12:25;;;;;;;1.65;0.65;;;15.20;51.20;;;;;;4999346;28;20540;-83
2021/05/25 10:14:51;;;;;;;2.88;1.00;;;15.80;43.70;;;;;;5001570;28;20026;-82
2021/05/25 10:17:43;;;;;;;4.65;0.88;;;16.00;1.00;;;;;;5002057;28;20074;-83
2021/05/25 10:25:31;;;;;;;1.65;0.50;;;16.60;1.00;;;;;;5156807;23;20073;-74
2021/05/25 10:27:58;;;;;;;0.57;0.50;;;16.30;99.90;;;;;;5034659;28;20056;-72
2021/05/25 10:30:23;;;;;;;2.65;0.88;;;16.10;99.90;;;;;;5036994;28;20070;-72
2021/05/25 10:33:09;;;;;;;3.00;0.82;;;16.40;99.90;;;;;;5037374;28;20036;-73
2021/05/25 10:36:08;;;;;;;1.80;0.82;;;16.30;99.90;;;;;;5032708;28;20027;-74
2021/05/25 10:38:43;;;;;;;1.70;0.70;;;15.70;99.90;;;;;;5018312;28;20027;-72
2021/05/25 10:41:22;;;;;;;1.33;0.45;;;15.10;99.90;;;;;;5019917;28;20038;-72
2021/05/25 10:43:47;;;;;;;6.30;0.80;;;14.60;99.90;;;;;;5037067;28;20040;-72
2021/05/25 10:46:14;;;;;;;1.50;0.50;;;14.30;99.90;;;;;;5039288;28;20017;-73
2021/05/25 10:49:05;;;;;;;1.48;0.45;;;14.30;99.90;;;;;;5018050;28;20058;-71
2021/05/25 10:54:29;;;;;;;0.73;0.40;;;13.70;1.00;;;;;;5015038;28;20041;-71
2021/05/25 10:56:56;;;;;;;1.70;0.75;;;13.60;99.90;;;;;;5018784;28;20029;-73
2021/05/25 10:59:21;;;;;;;2.55;0.60;;;13.40;99.90;;;;;;5010748;28;20046;-74
2021/05/25 11:01:55;;;;;;;2.70;0.63;;;13.30;99.90;;;;;;5000439;28;20027;-75
2021/05/25 11:04:37;;;;;;;1.13;0.50;;;13.20;1.00;;;;;;5000589;28;20022;-73
2021/05/25 11:07:36;;;;;;;1.35;0.65;;;13.20;99.90;;;;;;5000896;28;20026;-73
2021/05/25 11:10:27;;;;;;;0.52;0.50;;;13.00;99.90;;;;;;4999869;28;20096;-72
2021/05/25 11:13:25;;;;;;;1.13;0.60;;;12.60;99.90;;;;;;4997818;28;20038;-71
2021/05/25 11:24:50;;;;;;;6.05;0.93;;;12.40;99.90;;;;;;4992860;28;20031;-72
2021/05/25 11:27:34;;;;;;;0.98;0.40;;;11.80;99.90;;;;;;5027486;28;20036;-71
2021/05/25 11:30:23;;;;;;;0.80;0.50;;;11.20;99.90;;;;;;5026456;28;20041;-72
2021/05/25 11:32:51;;;;;;;2.05;1.27;;;11.10;99.90;;;;;;5013599;28;20041;-70
2021/05/25 11:35:22;;;;;;;2.05;0.70;;;11.20;99.90;;;;;;5010678;28;20061;-73
2021/05/25 11:37:52;;;;;;;0.50;0.50;;;11.70;99.90;;;;;;5011450;28;20053;-71
2021/05/25 11:40:26;;;;;;;2.58;0.60;;;12.30;99.90;;;;;;5012655;28;20045;-72
2021/05/25 11:42:53;;;;;;;0.68;0.52;;;12.50;99.90;;;;;;5011679;28;20022;-71
2021/05/25 11:45:22;;;;;;;3.30;0.55;;;12.50;99.90;;;;;;5014284;28;20045;-70
2021/05/25 11:48:00;;;;;;;0.50;0.40;;;12.90;99.90;;;;;;5012402;28;20037;-73
2021/05/25 11:50:27;;;;;;;1.95;0.40;;;13.10;99.90;;;;;;5005861;28;20026;-72
2021/05/25 11:52:54;;;;;;;1.52;0.45;;;13.30;99.90;;;;;;4989709;28;20078;-71
2021/05/25 11:55:22;;;;;;;1.95;0.55;;;13.70;99.90;;;;;;4988768;28;20073;-73
2021/05/25 11:57:50;;;;;;;1.98;0.57;;;13.90;1.00;;;;;;4987233;28;20062;-74
2021/05/25 12:00:29;;;;;;;2.33;0.50;;;14.00;1.00;;;;;;4985792;28;20023;-74
2021/05/25 12:02:57;;;;;;;1.27;0.43;;;14.20;52.10;;;;;;4982429;28;20398;-74
2021/05/25 12:05:25;;;;;;;2.35;0.40;;;14.10;1.00;;;;;;5000845;28;20034;-74
2021/05/25 12:07:59;;;;;;;1.55;0.80;;;13.90;99.90;;;;;;5015525;28;20084;-75
2021/05/25 12:10:27;;;;;;;1.80;0.80;;;14.10;1.00;;;;;;5011703;28;20379;-69
2021/05/25 12:12:54;;;;;;;1.73;0.68;;;14.20;99.90;;;;;;5015744;28;20097;-76
2021/05/25 12:15:22;;;;;;;1.30;0.40;;;14.40;1.00;;;;;;5008261;28;20030;-75
2021/05/25 12:17:55;;;;;;;2.28;0.60;;;14.70;99.90;;;;;;5007350;28;20048;-74
2021/05/25 12:20:23;;;;;;;4.22;0.60;;;15.20;99.90;;;;;;5017112;28;20026;-75
2021/05/25 12:22:55;;;;;;;13.07;8.70;;;15.30;52.90;;;;;;5013947;28;20116;-74
2021/05/25 12:25:29;;;;;;;1.25;0.93;;;15.70;55.50;;;;;;5011381;28;20030;-74
2021/05/25 12:28:08;;;;;;;1.63;0.50;;;16.00;1.00;;;;;;5016418;28;20033;-77
2021/05/25 12:30:35;;;;;;;1.48;0.80;;;16.10;1.00;;;;;;5016080;28;20638;-74
2021/05/25 12:33:01;;;;;;;1.20;0.82;;;15.80;1.00;;;;;;5016174;28;20080;-77
2021/05/25 12:35:28;;;;;;;2.17;0.55;;;16.00;1.00;;;;;;5015717;28;20045;-74
2021/05/25 12:38:10;;;;;;;1.10;0.50;;;16.00;1.00;;;;;;5015777;28;20041;-74
2021/05/25 12:40:38;;;;;;;5.55;1.17;;;16.10;1.00;;;;;;5014622;28;20089;-73
2021/05/25 12:43:16;;;;;;;1.67;0.50;;;16.30;1.00;;;;;;5014795;28;20394;-73
2021/05/25 12:45:44;;;;;;;2.63;0.55;;;16.30;99.90;;;;;;5007159;28;20163;-76
2021/05/25 12:48:10;;;;;;;0.68;0.50;;;16.30;99.90;;;;;;5015108;28;20536;-74
2021/05/25 12:50:38;;;;;;;17.27;4.35;;;16.40;99.90;;;;;;4995861;28;20022;-73
2021/05/25 12:53:18;;;;;;;0.75;0.50;;;16.30;99.90;;;;;;5000615;28;20118;-74
2021/05/25 12:55:53;;;;;;;8.90;1.95;;;16.20;99.90;;;;;;5004050;28;20022;-74
2021/05/25 12:58:39;;;;;;;2.03;0.60;;;16.20;99.90;;;;;;4993963;28;20065;-74
2021/05/25 13:01:28;;;;;;;2.17;0.85;;;16.40;99.90;;;;;;4983614;28;20026;-74
2021/05/25 13:04:03;;;;;;;4.35;0.50;;;16.70;99.90;;;;;;4994451;28;20034;-77
2021/05/25 13:06:36;;;;;;;1.73;0.77;;;16.70;99.90;;;;;;5004747;28;20474;-74
2021/05/25 13:09:14;;;;;;;3.60;1.17;;;16.60;99.90;;;;;;5014572;28;20094;-74
2021/05/25 13:12:03;;;;;;;1.08;0.50;;;16.70;99.90;;;;;;4991931;28;20086;-75
2021/05/25 13:14:31;;;;;;;1.65;0.50;;;17.20;99.90;;;;;;5003022;28;20105;-73
2021/05/25 13:17:03;;;;;;;1.23;0.68;;;17.00;99.90;;;;;;5010515;28;20057;-71
2021/05/25 13:19:50;;;;;;;1.40;0.68;;;16.60;99.90;;;;;;4994866;28;20022;-72
2021/05/25 13:22:22;;;;;;;3.88;2.03;;;16.90;99.90;;;;;;4989002;28;20447;-70
2021/05/25 13:24:54;;;;;;;2.92;0.50;;;17.30;99.90;;;;;;5006035;28;20061;-70
2021/05/25 13:27:25;;;;;;;4.38;0.60;;;17.40;99.90;;;;;;5017347;28;20058;-73
2021/05/25 13:29:58;;;;;;;;;;;17.50;99.90;;;;;;5002062;28;20105;-70
2021/05/25 13:32:24;;;;;;;3.95;0.60;;;17.70;99.90;;;;;;5009998;28;19906;-73
2021/05/25 13:34:49;;;;;;;1.08;0.47;;;17.50;99.90;;;;;;5016079;28;20373;-71
2021/05/25 13:37:15;;;;;;;2.90;0.90;;;17.20;99.90;;;;;;5015690;28;20040;-73
2021/05/25 13:39:40;;;;;;;3.25;0.90;;;17.10;99.90;;;;;;5022268;28;20045;-71
2021/05/25 13:42:06;;;;;;;1.00;0.50;;;17.00;99.90;;;;;;5028442;28;20033;-71